WEATHER DATA

YESTERDAY
Time Temp. Dewp. Hum. Wind dir Wind speed Wind gust Bar. 1h Prec. 24h Prec.
00:01 10.4 9.5 94 234 3.3 5.3 1016.1 0.0000 0.0000
00:11 10.3 9.2 93 234 3.6 5 1016.3 0.0000 0.0000
00:32 10.3 9.2 93 229 3.3 5.3 1016.8 0.0000 0.0000
00:41 10.2 9.1 93 230 2.8 3.9 1017 0.0000 0.0000
00:51 10.2 9.3 94 235 3.1 4.2 1017.2 0.0000 0.0000
01:01 10.2 9.1 93 234 2.8 4.7 1017.2 0.0000 0.0000
01:12 10.2 9.1 93 240 3.1 4.4 1017.3 0.0000 0.0000
01:21 10.2 9.1 93 236 2.8 4.2 1017.4 0.0000 0.0000
01:31 10.1 8.9 92 240 3.1 5.3 1017.5 0.0000 0.0000
01:42 10 8.8 92 247 2.5 3.6 1017.7 0.0000 0.0000
01:52 9.9 8.8 93 251 2.8 4.4 1018 0.0000 0.0000
02:02 9.9 8.8 93 247 2.8 4.4 1018.1 0.0000 0.0000
02:11 10 8.9 93 243 3.1 5.3 1018.3 0.0000 0.0000
02:22 10 8.9 93 246 2.8 4.7 1018.4 0.0000 0.0000
02:32 10.1 9 93 234 2.5 4.2 1018.5 0.0000 0.0000
02:42 10.3 9.1 92 231 3.3 4.7 1018.6 0.0000 0.0000
02:52 10.3 9.1 92 228 3.3 5 1018.6 0.0000 0.0000
03:02 10.3 8.9 91 233 2.5 4.4 1018.7 0.0000 0.0000
03:12 10.3 8.9 91 235 2.8 5 1018.9 0.0000 0.0000
03:22 10.3 8.9 91 232 3.3 5.6 1019 0.0000 0.0000
03:32 10.2 8.8 91 243 3.1 4.7 1019.1 0.0000 0.0000
03:42 10.1 8.7 91 248 3.1 5 1019.3 0.0000 0.0000
03:52 9.9 8.5 91 246 2.8 4.4 1019.4 0.0000 0.0000
04:03 9.8 8.6 92 237 2.8 5 1019.4 0.0000 0.0000
04:13 9.7 8.5 92 245 2.5 4.2 1019.5 0.0000 0.0000
04:22 9.7 8.6 93 242 2.2 3.3 1019.5 0.0000 0.0000
04:32 9.7 8.6 93 246 1.9 3.3 1019.7 0.0000 0.0000
04:43 9.7 8.6 93 251 1.9 3.9 1019.7 0.0000 0.0000
04:53 9.9 8.8 93 247 2.5 3.9 1019.8 0.0000 0.0000
05:02 10 8.9 93 228 2.5 3.9 1019.8 0.0000 0.0000
05:13 10.1 8.9 92 235 2.5 3.6 1019.8 0.0000 0.0000
05:23 10.2 8.8 91 237 2.5 3.9 1019.7 0.0000 0.0000
05:33 10.2 8.8 91 237 3.1 4.4 1019.8 0.0000 0.0000
05:43 10.1 8.7 91 244 2.8 5 1019.8 0.0000 0.0000
05:53 10 8.6 91 247 2.5 3.9 1019.8 0.0000 0.0000
06:03 10 8.6 91 244 3.1 6.1 1019.8 0.0000 0.0000
06:13 10 8.6 91 243 3.1 5.8 1019.7 0.0000 0.0000
06:24 10 8.6 91 241 3.1 6.1 1019.8 0.0000 0.0000
06:33 10.1 8.7 91 234 2.8 4.7 1019.8 0.0000 0.0000
06:43 10.1 8.7 91 234 2.8 4.2 1019.9 0.0000 0.0000
06:53 10.1 8.5 90 234 3.1 4.2 1019.9 0.0000 0.0000
07:04 10.1 8.5 90 232 3.3 5.3 1020 0.0000 0.0000
07:13 10.2 8.6 90 227 2.8 3.9 1020.1 0.0000 0.0000
07:23 10.1 8.5 90 227 2.8 4.2 1020.2 0.0000 0.0000
07:32 10.3 8.9 91 225 3.9 7.5 1020.2 0.0000 0.0000
07:47 10.8 9.2 90 241 4.2 11.9 1020.1 0.0000 0.0000
07:58 10.9 9.3 90 229 6.9 10.3 1020.2 0.0000 0.0000
08:07 11.5 9.9 90 256 2.8 4.4 1020.2 0.0000 0.0000
08:17 11.6 9.7 88 242 2.8 5.6 1020.3 0.0000 0.0000
08:27 12 10.1 88 251 2.8 6.1 1020.3 0.0000 0.0000
08:38 12.8 10.7 87 217 3.6 6.9 1020.3 0.0000 0.0000
08:48 13.1 10.3 83 203 4.2 7.8 1020.4 0.0000 0.0000
08:57 12.9 10.1 83 230 3.9 7.2 1020.5 0.0000 0.0000
09:08 12.8 10.2 84 237 3.9 8.9 1020.5 0.0000 0.0000
09:18 12.7 10.2 85 240 3.9 7.2 1020.4 0.0000 0.0000
09:28 12.6 10.1 85 232 3.9 8.9 1020.4 0.0000 0.0000
09:38 12.6 10.3 86 239 4.2 7.8 1020.3 0.0000 0.0000
09:48 13 10.9 87 210 3.9 6.9 1020.3 0.0000 0.0000
09:52 13.4 11.1 86 183 4.4 10.8 1020.3 0.0000 0.0000
10:02 13.7 11.2 85 195 4.7 8.3 1020.2 0.0000 0.0000
10:12 14.5 11.8 84 250 3.3 5 1020.2 0.0000 0.0000
10:22 15.2 12.2 82 239 4.2 5 1020 0.0000 0.0000
10:37 15.2 11.4 78 206 4.2 9.4 1019.9 0.0000 0.0000
10:48 15 11.2 78 194 4.7 8.9 1019.9 0.0000 0.0000
10:58 15 11.4 79 200 5 8.1 1019.9 0.0000 0.0000
11:07 14.9 11.3 79 196 4.7 7.8 1020 0.0000 0.0000
11:16 14.7 11.3 80 200 4.7 10.6 1020 0.0000 0.0000
11:26 14.6 11.4 81 212 5 8.6 1020 0.0000 0.0000
11:35 14.6 11.6 82 207 4.4 8.6 1019.8 0.0000 0.0000
11:45 14.9 11.7 81 198 4.2 8.6 1019.5 0.0000 0.0000
11:55 14.9 11.7 81 206 3.9 6.7 1019.4 0.0000 0.0000
12:05 15.1 11.7 80 187 4.7 11.4 1019.5 0.0000 0.0000
12:16 15.2 12 81 174 4.4 7.8 1019.5 0.0000 0.0000
12:26 15.1 11.7 80 200 4.4 8.3 1019.4 0.0000 0.0000
12:36 15 11.6 80 204 5.3 10 1019.4 0.0000 0.0000
12:46 15 11.6 80 198 4.7 9.7 1019.3 0.0000 0.0000
12:56 15 11.6 80 205 4.4 6.9 1019.2 0.0000 0.0000
13:06 15.2 11.8 80 199 4.4 9.2 1019.1 0.0000 0.0000
13:16 15.2 11.8 80 201 4.2 8.6 1019 0.0000 0.0000
13:26 15.2 11.8 80 207 4.4 10 1018.9 0.0000 0.0000
13:36 15.2 12 81 205 4.4 6.9 1018.8 0.0000 0.0000
13:46 15.4 12 80 217 4.2 7.2 1018.7 0.0000 0.0000
13:56 15.7 12.1 79 198 3.9 6.7 1018.6 0.0000 0.0000
14:06 15.8 12.2 79 241 3.9 6.4 1018.5 0.0000 0.0000
14:16 15.9 12.3 79 232 4.2 8.3 1018.4 0.0000 0.0000
14:26 16 12.2 78 209 3.3 5.6 1018.5 0.0000 0.0000
14:37 15.9 12.1 78 200 4.4 9.2 1018.6 0.0000 0.0000
14:47 15.8 12 78 200 4.7 8.9 1018.4 0.0000 0.0000
14:56 15.7 11.9 78 209 4.7 8.6 1018.4 0.0000 0.0000
15:07 15.4 11.8 79 229 4.4 7.8 1018.9 0.0000 0.0000
15:15 14.7 10.9 78 227 3.1 6.4 1018.9 0.3030 0.3000
15:28 13.7 10.9 83 239 3.6 8.6 1018.8 0.8080 0.8000
15:38 13.4 11.1 86 231 7.5 11.9 1018.8 0.9090 0.9000
15:48 13.2 11.3 88 236 4.7 11.1 1018.8 0.9090 0.9000
15:59 13.2 11.3 88 240 3.1 5.6 1018.8 0.9090 0.9000
16:08 13.2 11.3 88 238 4.4 10 1018.9 0.9090 0.9000
16:18 13 11.2 89 230 6.7 9.2 1018.8 0.6060 0.9000
16:29 12.9 11.1 89 231 4.7 6.1 1018.9 0.1010 0.9000
16:39 12.9 11.1 89 231 5 6.7 1018.9 0.0000 0.9000
16:48 13 11.4 90 230 4.7 6.7 1018.9 0.0000 0.9000
16:58 12.9 11.3 90 229 4.2 5.6 1018.9 0.0000 0.9000
17:09 12.9 11.5 91 229 3.6 5 1018.8 0.1010 1.0000
17:19 12.9 11.5 91 231 4.2 5.8 1018.8 0.1010 1.0000
17:28 12.9 11.6 92 230 6.4 8.6 1018.8 0.1010 1.0000
17:35 12.9 11.6 92 228 7.8 13.3 1018.8 0.1010 1.0000
17:45 12.9 11.5 91 228 8.3 11.9 1018.7 0.1010 1.0000
17:56 12.8 11.4 91 233 7.2 10.3 1019 0.1010 1.0000
18:05 12.7 11.3 91 232 7.2 10.3 1019 0.0000 1.0000
18:15 12.7 11.3 91 231 5.8 8.3 1019.2 0.0000 1.0000
18:26 12.6 11.2 91 236 4.2 5.3 1019.1 0.0000 1.0000
18:36 12.4 11 91 236 3.6 5 1019.2 0.0000 1.0000
18:45 12.2 10.8 91 237 2.5 3.9 1019.3 0.0000 1.0000
18:56 11.8 10.4 91 250 1.9 3.1 1019.4 0.0000 1.0000
19:06 11.5 10.2 92 253 2.5 3.3 1019.7 0.0000 1.0000
19:16 11.3 10 92 245 2.5 3.3 1019.7 0.0000 1.0000
19:26 11.2 10.1 93 249 3.1 4.2 1019.9 0.0000 1.0000
19:36 11.2 10.1 93 247 3.1 3.9 1020.2 0.0000 1.0000
19:46 11.1 10 93 250 3.1 4.2 1020.3 0.0000 1.0000
19:56 11.1 10 93 248 3.3 4.4 1020.4 0.0000 1.0000
20:07 11 9.8 92 247 3.9 5.3 1020.6 0.0000 1.0000
20:16 10.9 9.7 92 244 3.6 5.3 1020.8 0.0000 1.0000
20:26 10.7 9.5 92 248 2.8 3.9 1020.8 0.0000 1.0000
20:36 10.6 9.5 93 247 3.1 3.9 1020.9 0.0000 1.0000
20:47 10.4 9.3 93 249 3.1 4.2 1021 0.0000 1.0000
20:56 10.4 9.5 94 245 2.5 4.2 1021 0.0000 1.0000
21:06 10.4 9.5 94 246 2.8 4.4 1021.1 0.0000 1.0000
21:17 10.6 9.7 94 247 3.3 4.7 1021.3 0.0000 1.0000
21:27 10.8 9.9 94 249 3.3 5 1021.5 0.0000 1.0000
21:37 10.8 9.7 93 249 2.5 3.6 1021.6 0.0000 1.0000
21:47 10.7 9.6 93 248 3.1 4.2 1021.8 0.0000 1.0000
21:57 10.5 9.4 93 249 3.1 4.7 1022 0.0000 1.0000
22:07 10.3 9.2 93 247 2.8 3.9 1022.1 0.0000 1.0000
22:17 10.3 9.2 93 249 3.1 4.2 1022.2 0.0000 1.0000
22:27 10.4 9.3 93 252 3.3 4.4 1022.2 0.0000 1.0000
22:37 10.6 9.4 92 250 2.8 4.2 1022.4 0.0000 1.0000
22:47 10.6 9.2 91 248 2.5 3.9 1022.6 0.0000 1.0000
22:57 10.5 9.1 91 252 2.8 4.2 1022.7 0.0000 1.0000
23:08 10.3 8.9 91 251 2.8 3.9 1022.9 0.0000 1.0000
23:17 10.1 8.7 91 250 2.5 3.3 1022.8 0.0000 1.0000
23:27 9.9 8.5 91 248 2.2 3.1 1022.9 0.0000 1.0000
23:38 9.6 8.2 91 250 2.2 3.6 1022.9 0.0000 1.0000
23:48 9.3 8.1 92 247 2.2 3.3 1023 0.0000 1.0000
23:57 9.2 8.1 93 250 2.5 3.6 1023.1 0.0000

DAY STATISTIC

2022-10-02
TEMPERATURE
AVERAGE
12.0
HIGH
16.0
14:26
LOW
9.2
23:57
PRESSURE
AVERAGE
1019.7
HIGH
1023.1
23:57
LOW
1016.1
00:01
DEWPOINT
AVERAGE
10.1
HIGH
12.3
14:16
LOW
8.1
23:48
HUMIDITY
AVERAGE
89
HIGH
94
00:01
LOW
78
10:37
WIND SPEED
AVERAGE
3.6
HIGH
8.3
17:45
WIND GUST
AVERAGE
6.1
HIGH
13.3
17:35
WIND DIRECTION
PREVAILING
SW
68.5%
N
0.0
NE
0.0
E
0.0
SE
0.0
S
12.6
SW
68.5
W
18.9
NW
0.0
PRECIPITATION
RAIN HOUR
0.9
RAIN DAY
1.0
TEMPERATURE (°C)
LOW
9.2
HIGH
16.0
AVERAGE
12.0
PRESSURE (hpa)
LOW
1016.1
HIGH
1023.1
AVERAGE
1019.7
DEVICE